Time;durP1;ratioP1;P1;durP2;ratioP2;P2;SDS_P1;SDS_P2;PMS_P1;PMS_P2;Temp;Humidity;BMP_temperature;BMP_pressure;BME280_temperature;BME280_humidity;BME280_pressure;Samples;Min_cycle;Max_cycle;Signal;HPM_P1;HPM_P2
2021/04/03 00:00:40;;;;;;;34.95;5.30;;;;;;;;;;5125592;28;20032;-79
2021/04/03 00:03:07;;;;;;;33.25;5.72;;;;;;;;;;5127151;28;20091;-79
2021/04/03 00:05:33;;;;;;;35.22;5.80;;;;;;;;;;5123277;28;20071;-78
2021/04/03 00:08:00;;;;;;;42.35;6.47;;;;;;;;;;5128672;28;20042;-78
2021/04/03 00:10:30;;;;;;;50.40;6.68;;;;;;;;;;5126764;28;20043;-78
2021/04/03 00:12:57;;;;;;;41.33;6.75;;;;;;;;;;5121810;28;20031;-78
2021/04/03 00:15:24;;;;;;;43.13;5.65;;;;;;;;;;5129147;27;20027;-78
2021/04/03 00:17:50;;;;;;;43.50;6.38;;;;;;;;;;5126748;28;20052;-78
2021/04/03 00:20:17;;;;;;;39.33;6.45;;;;;;;;;;5122822;28;20070;-77
2021/04/03 00:22:44;;;;;;;39.88;6.97;;;;;;;;;;5109666;28;20111;-80
2021/04/03 00:25:11;;;;;;;43.47;6.63;;;;;;;;;;5127758;28;20032;-80
2021/04/03 00:27:38;;;;;;;44.70;5.80;;;;;;;;;;5128115;28;20474;-80
2021/04/03 00:30:15;;;;;;;42.08;6.15;;;;;;;;;;5123537;28;20054;-79
2021/04/03 00:32:49;;;;;;;50.17;6.72;;;;;;;;;;5125164;28;20043;-79
2021/04/03 00:35:17;;;;;;;45.63;6.75;;;;;;;;;;5126224;28;20031;-80
2021/04/03 00:37:43;;;;;;;40.03;6.32;;;;;;;;;;5122139;27;20466;-80
2021/04/03 00:40:12;;;;;;;42.78;6.85;;;;;;;;;;5133823;27;20038;-79
2021/04/03 00:42:38;;;;;;;40.25;6.25;;;;;;;;;;5128846;27;20070;-79
2021/04/03 00:45:05;;;;;;;38.95;6.47;;;;;;;;;;5126009;27;20035;-79
2021/04/03 00:47:32;;;;;;;43.80;6.55;;;;;;;;;;5124178;27;20035;-78
2021/04/03 00:49:58;;;;;;;40.97;6.68;;;;;;;;;;5133491;27;20039;-80
2021/04/03 00:52:24;;;;;;;35.70;5.65;;;;;;;;;;5112760;27;20130;-78
2021/04/03 00:54:50;;;;;;;38.25;7.28;;;;;;;;;;5129666;27;20041;-80
2021/04/03 00:57:17;;;;;;;48.95;6.78;;;;;;;;;;5130048;27;20043;-79
2021/04/03 00:59:44;;;;;;;39.53;7.18;;;;;;;;;;5133710;27;20461;-80
2021/04/03 01:02:10;;;;;;;48.08;7.78;;;;;;;;;;5128896;27;20027;-80
2021/04/03 01:04:37;;;;;;;50.45;7.68;;;;;;;;;;5125832;27;20096;-78
2021/04/03 01:07:03;;;;;;;42.10;6.45;;;;;;;;;;5128406;27;20053;-79
2021/04/03 01:09:30;;;;;;;45.08;6.40;;;;;;;;;;5128651;27;20466;-80
2021/04/03 01:12:19;;;;;;;43.33;7.82;;;;;;;;;;5126700;27;20518;-80
2021/04/03 01:14:59;;;;;;;50.58;6.80;;;;;;;;;;5103299;27;20055;-80
2021/04/03 01:17:36;;;;;;;51.47;7.45;;;;;;;;;;5130114;27;20069;-80
2021/04/03 01:20:12;;;;;;;55.83;7.13;;;;;;;;;;5133521;27;20031;-79
2021/04/03 01:22:57;;;;;;;55.53;8.05;;;;;;;;;;5129842;27;20039;-80
2021/04/03 01:25:26;;;;;;;54.42;7.75;;;;;;;;;;5123099;27;20481;-79
2021/04/03 01:28:11;;;;;;;53.33;7.07;;;;;;;;;;5128121;27;20469;-79
2021/04/03 01:30:37;;;;;;;57.42;7.13;;;;;;;;;;5122135;27;20133;-78
2021/04/03 01:33:11;;;;;;;48.20;7.70;;;;;;;;;;5130478;27;20035;-79
2021/04/03 01:35:39;;;;;;;46.92;9.18;;;;;;;;;;5139168;27;20429;-78
2021/04/03 01:38:25;;;;;;;58.95;8.80;;;;;;;;;;5132505;27;20474;-80
2021/04/03 01:40:52;;;;;;;56.97;9.13;;;;;;;;;;5151871;27;20043;-79
2021/04/03 01:43:20;;;;;;;60.35;9.32;;;;;;;;;;5115351;27;20382;-80
2021/04/03 01:45:48;;;;;;;52.05;7.28;;;;;;;;;;5123905;27;20047;-79
2021/04/03 01:48:16;;;;;;;55.20;10.00;;;;;;;;;;5131276;27;20097;-80
2021/04/03 01:50:43;;;;;;;61.60;8.52;;;;;;;;;;5124644;27;20066;-80
2021/04/03 01:53:10;;;;;;;54.42;7.70;;;;;;;;;;5132919;27;20058;-80
2021/04/03 01:55:37;;;;;;;60.90;9.82;;;;;;;;;;5125588;27;20454;-79
2021/04/03 01:58:04;;;;;;;48.92;7.68;;;;;;;;;;5128298;27;20046;-79
2021/04/03 02:00:32;;;;;;;61.05;8.52;;;;;;;;;;5130128;27;20076;-80
2021/04/03 02:02:58;;;;;;;52.58;7.00;;;;;;;;;;5124831;27;20051;-80
2021/04/03 02:05:25;;;;;;;62.70;8.70;;;;;;;;;;5129753;27;20039;-79
2021/04/03 02:07:52;;;;;;;61.08;7.65;;;;;;;;;;5132288;27;20227;-79
2021/04/03 02:10:22;;;;;;;64.20;8.82;;;;;;;;;;5123486;27;20054;-80
2021/04/03 02:12:48;;;;;;;57.22;8.48;;;;;;;;;;5124253;27;20055;-79
2021/04/03 02:15:15;;;;;;;48.97;8.45;;;;;;;;;;5131294;27;20039;-79
2021/04/03 02:17:43;;;;;;;59.72;8.40;;;;;;;;;;5129434;27;20125;-80
2021/04/03 02:20:09;;;;;;;55.35;8.38;;;;;;;;;;5131586;27;20114;-80
2021/04/03 02:22:36;;;;;;;72.00;10.00;;;;;;;;;;5127664;27;20165;-80
2021/04/03 02:25:12;;;;;;;58.42;7.88;;;;;;;;;;5128023;27;20128;-79
2021/04/03 02:27:39;;;;;;;59.38;8.30;;;;;;;;;;5123089;27;20366;-80
2021/04/03 02:30:12;;;;;;;56.15;8.27;;;;;;;;;;5106745;27;20054;-80
2021/04/03 02:32:42;;;;;;;67.63;9.43;;;;;;;;;;5125075;27;20430;-79
2021/04/03 02:35:09;;;;;;;65.15;10.68;;;;;;;;;;5128905;27;20039;-79
2021/04/03 02:37:36;;;;;;;55.17;8.40;;;;;;;;;;5129255;27;20081;-79
2021/04/03 02:40:04;;;;;;;57.65;8.15;;;;;;;;;;5130321;27;20383;-79
2021/04/03 02:42:30;;;;;;;62.22;8.68;;;;;;;;;;5129274;27;20027;-78
2021/04/03 02:45:01;;;;;;;62.00;7.65;;;;;;;;;;5126331;27;20120;-80
2021/04/03 02:47:33;;;;;;;66.30;8.80;;;;;;;;;;5125086;27;20043;-79
2021/04/03 02:50:01;;;;;;;59.47;8.43;;;;;;;;;;5130759;27;20051;-79
2021/04/03 02:52:27;;;;;;;58.33;8.38;;;;;;;;;;5127198;27;20480;-80
2021/04/03 02:54:54;;;;;;;56.53;9.10;;;;;;;;;;5116151;27;20055;-79
2021/04/03 02:57:20;;;;;;;65.68;9.35;;;;;;;;;;5124971;27;20043;-79
2021/04/03 02:59:52;;;;;;;58.38;8.50;;;;;;;;;;5123860;27;20028;-78
2021/04/03 03:02:20;;;;;;;80.78;9.68;;;;;;;;;;5129814;27;20027;-80
2021/04/03 03:04:47;;;;;;;66.70;9.90;;;;;;;;;;5129258;27;20058;-79
2021/04/03 03:07:14;;;;;;;58.40;8.05;;;;;;;;;;5124716;27;20039;-78
2021/04/03 03:09:42;;;;;;;66.65;8.93;;;;;;;;;;5129393;27;20458;-80
2021/04/03 03:12:11;;;;;;;55.83;8.65;;;;;;;;;;5110683;27;20375;-80
2021/04/03 03:14:38;;;;;;;56.92;8.85;;;;;;;;;;5127173;27;20038;-79
2021/04/03 03:17:04;;;;;;;59.70;8.75;;;;;;;;;;5122740;27;20033;-79
2021/04/03 03:19:31;;;;;;;61.60;8.35;;;;;;;;;;5129345;27;20387;-79
2021/04/03 03:21:57;;;;;;;57.15;8.70;;;;;;;;;;5126241;27;20114;-79
2021/04/03 03:24:23;;;;;;;61.42;9.18;;;;;;;;;;5129498;27;20122;-79
2021/04/03 03:26:50;;;;;;;57.08;9.18;;;;;;;;;;5128370;27;20092;-78
2021/04/03 03:29:17;;;;;;;54.67;8.40;;;;;;;;;;5129238;27;20027;-79
2021/04/03 03:31:43;;;;;;;69.20;9.80;;;;;;;;;;5149413;27;20126;-79
2021/04/03 03:34:10;;;;;;;62.78;11.07;;;;;;;;;;5125463;27;20450;-79
2021/04/03 03:36:39;;;;;;;56.45;8.73;;;;;;;;;;5122247;28;20092;-79
2021/04/03 03:39:06;;;;;;;65.13;8.45;;;;;;;;;;5125378;27;20036;-79
2021/04/03 03:41:34;;;;;;;61.22;8.80;;;;;;;;;;5130470;27;20050;-78
2021/04/03 03:44:01;;;;;;;61.85;8.32;;;;;;;;;;5126754;28;20440;-79
2021/04/03 03:46:28;;;;;;;55.58;8.38;;;;;;;;;;5121997;28;20035;-79
2021/04/03 03:48:54;;;;;;;62.97;9.00;;;;;;;;;;5125366;28;20035;-78
2021/04/03 03:51:20;;;;;;;62.45;8.63;;;;;;;;;;5126571;28;20050;-80
2021/04/03 03:53:46;;;;;;;60.67;10.18;;;;;;;;;;5125208;28;20046;-80
2021/04/03 03:56:14;;;;;;;60.03;7.88;;;;;;;;;;5123589;28;20068;-79
2021/04/03 03:58:41;;;;;;;63.72;8.50;;;;;;;;;;5125085;28;20192;-79
2021/04/03 04:01:08;;;;;;;62.25;11.43;;;;;;;;;;5125985;27;20398;-79
2021/04/03 04:03:34;;;;;;;64.93;8.48;;;;;;;;;;5126993;28;20035;-79
2021/04/03 04:06:00;;;;;;;61.75;8.75;;;;;;;;;;5126143;28;20043;-79
2021/04/03 04:08:27;;;;;;;52.20;9.45;;;;;;;;;;5125348;28;20474;-79
2021/04/03 04:10:53;;;;;;;59.90;9.43;;;;;;;;;;5125862;28;20092;-79
2021/04/03 04:13:20;;;;;;;69.20;9.43;;;;;;;;;;5127118;27;20035;-79
2021/04/03 04:15:46;;;;;;;61.33;9.10;;;;;;;;;;5133057;27;20035;-79
2021/04/03 04:18:13;;;;;;;54.10;9.00;;;;;;;;;;5129148;27;20096;-79
2021/04/03 04:20:39;;;;;;;57.13;7.28;;;;;;;;;;5113244;27;20039;-80
2021/04/03 04:23:05;;;;;;;62.20;10.05;;;;;;;;;;5113463;27;20389;-79
2021/04/03 04:25:31;;;;;;;60.08;7.90;;;;;;;;;;5135314;27;20031;-78
2021/04/03 04:27:57;;;;;;;67.18;9.00;;;;;;;;;;5120922;27;20043;-80
2021/04/03 04:30:24;;;;;;;51.10;7.13;;;;;;;;;;5131259;27;20043;-80
2021/04/03 04:32:50;;;;;;;50.58;7.97;;;;;;;;;;5129243;27;20538;-80
2021/04/03 04:35:16;;;;;;;53.85;9.10;;;;;;;;;;5131287;27;20386;-80
2021/04/03 04:37:43;;;;;;;62.63;8.68;;;;;;;;;;5121420;27;20047;-79
2021/04/03 04:40:11;;;;;;;58.75;9.27;;;;;;;;;;5132177;27;20035;-79
2021/04/03 04:42:41;;;;;;;72.70;11.27;;;;;;;;;;5133263;27;20036;-79
2021/04/03 04:45:08;;;;;;;62.53;9.80;;;;;;;;;;5124569;27;20055;-79
2021/04/03 04:47:36;;;;;;;65.07;8.93;;;;;;;;;;5121744;27;20046;-79
2021/04/03 04:50:03;;;;;;;63.05;9.82;;;;;;;;;;5121903;27;20083;-79
2021/04/03 04:52:29;;;;;;;58.80;9.43;;;;;;;;;;5111692;27;20038;-80
2021/04/03 04:54:56;;;;;;;62.05;9.38;;;;;;;;;;5140354;27;20036;-80
2021/04/03 04:57:22;;;;;;;52.88;9.50;;;;;;;;;;5117296;27;20542;-77
2021/04/03 04:59:48;;;;;;;58.40;9.38;;;;;;;;;;5137809;27;20498;-77
2021/04/03 05:02:35;;;;;;;51.13;7.97;;;;;;;;;;5120828;27;20397;-77
2021/04/03 05:05:01;;;;;;;57.00;8.30;;;;;;;;;;5118866;27;20032;-77
2021/04/03 05:07:27;;;;;;;60.35;8.48;;;;;;;;;;5132553;27;20039;-79
2021/04/03 05:09:53;;;;;;;63.83;8.77;;;;;;;;;;5117914;27;20043;-79
2021/04/03 05:12:19;;;;;;;57.25;9.02;;;;;;;;;;5120762;27;20043;-80
2021/04/03 05:14:45;;;;;;;68.40;9.90;;;;;;;;;;5118627;27;20090;-80
2021/04/03 05:17:12;;;;;;;67.55;8.45;;;;;;;;;;5137347;27;20035;-79
2021/04/03 05:19:38;;;;;;;58.05;9.40;;;;;;;;;;5116318;27;20032;-80
2021/04/03 05:22:04;;;;;;;50.17;9.65;;;;;;;;;;5140644;27;20097;-81
2021/04/03 05:24:31;;;;;;;52.85;8.77;;;;;;;;;;5128391;27;20119;-79
2021/04/03 05:26:57;;;;;;;58.70;8.85;;;;;;;;;;5123971;27;20039;-80
2021/04/03 05:29:23;;;;;;;58.30;8.75;;;;;;;;;;5117503;27;20474;-80
2021/04/03 05:31:49;;;;;;;72.70;10.45;;;;;;;;;;5127750;27;20394;-79
2021/04/03 05:34:15;;;;;;;53.63;9.00;;;;;;;;;;5135439;27;20047;-79
2021/04/03 05:36:41;;;;;;;52.90;8.40;;;;;;;;;;5128050;27;20043;-80
2021/04/03 05:39:07;;;;;;;50.13;8.85;;;;;;;;;;5122191;27;20549;-79
2021/04/03 05:41:33;;;;;;;59.97;9.20;;;;;;;;;;5113390;27;20106;-79
2021/04/03 05:44:02;;;;;;;67.53;9.25;;;;;;;;;;5125730;27;20070;-80
2021/04/03 05:46:28;;;;;;;57.50;8.68;;;;;;;;;;5121118;27;20356;-80
2021/04/03 05:48:54;;;;;;;69.05;10.10;;;;;;;;;;5123763;27;20134;-79
2021/04/03 05:51:20;;;;;;;54.75;9.02;;;;;;;;;;5115853;27;20063;-81
2021/04/03 05:53:47;;;;;;;58.40;8.48;;;;;;;;;;5135372;27;20097;-85
2021/04/03 05:56:16;;;;;;;83.65;11.38;;;;;;;;;;5125761;27;20046;-77
2021/04/03 05:58:42;;;;;;;45.78;9.13;;;;;;;;;;5116615;27;20050;-79
2021/04/03 06:01:08;;;;;;;58.85;9.80;;;;;;;;;;5120000;27;20069;-78
2021/04/03 06:03:35;;;;;;;57.17;9.27;;;;;;;;;;5118244;27;20063;-77
2021/04/03 06:06:01;;;;;;;49.60;9.07;;;;;;;;;;5118603;27;20553;-78
2021/04/03 06:08:31;;;;;;;58.05;8.70;;;;;;;;;;5119956;27;20050;-78
2021/04/03 06:11:11;;;;;;;51.60;9.13;;;;;;;;;;5152454;27;20047;-78
2021/04/03 06:13:38;;;;;;;58.15;7.75;;;;;;;;;;5132870;27;20040;-77
2021/04/03 06:16:25;;;;;;;50.08;7.97;;;;;;;;;;5116793;27;20469;-75
2021/04/03 06:19:05;;;;;;;46.53;7.60;;;;;;;;;;5113562;27;20093;-79
2021/04/03 06:21:31;;;;;;;56.83;9.13;;;;;;;;;;5116469;27;20491;-79
2021/04/03 06:23:57;;;;;;;50.22;8.65;;;;;;;;;;5138002;27;20040;-82
2021/04/03 06:26:23;;;;;;;67.95;9.35;;;;;;;;;;5122450;27;20112;-80
2021/04/03 06:28:49;;;;;;;48.35;7.63;;;;;;;;;;5122190;27;20088;-76
2021/04/03 06:31:17;;;;;;;55.17;9.27;;;;;;;;;;5139502;27;20039;-76
2021/04/03 06:33:43;;;;;;;52.78;9.95;;;;;;;;;;5120446;27;20067;-76
2021/04/03 06:36:16;;;;;;;52.63;7.78;;;;;;;;;;5117616;27;20046;-79
2021/04/03 06:38:43;;;;;;;60.60;9.85;;;;;;;;;;5123109;27;20047;-79
2021/04/03 06:41:25;;;;;;;48.95;8.95;;;;;;;;;;5123984;27;20398;-80
2021/04/03 06:44:02;;;;;;;56.45;9.50;;;;;;;;;;5117020;27;20059;-73
2021/04/03 06:46:28;;;;;;;53.33;9.70;;;;;;;;;;5122889;27;20042;-73
2021/04/03 06:48:54;;;;;;;47.03;8.43;;;;;;;;;;5115803;27;20092;-74
2021/04/03 06:51:22;;;;;;;56.35;8.80;;;;;;;;;;5128855;27;20039;-75
2021/04/03 06:53:49;;;;;;;50.88;7.93;;;;;;;;;;5131721;27;20043;-74
2021/04/03 06:56:17;;;;;;;59.05;8.52;;;;;;;;;;5132444;27;20035;-77
2021/04/03 06:58:45;;;;;;;46.38;7.40;;;;;;;;;;5130168;27;20035;-77
2021/04/03 07:01:12;;;;;;;50.53;7.90;;;;;;;;;;5131896;27;20039;-77
2021/04/03 07:03:41;;;;;;;50.25;8.25;;;;;;;;;;5130931;27;20035;-77
2021/04/03 07:06:08;;;;;;;40.35;6.80;;;;;;;;;;5132053;27;20039;-77
2021/04/03 07:08:36;;;;;;;48.85;7.72;;;;;;;;;;5133352;27;20045;-77
2021/04/03 07:11:03;;;;;;;48.42;6.95;;;;;;;;;;5133987;27;20047;-76
2021/04/03 07:13:29;;;;;;;47.63;8.98;;;;;;;;;;5132881;27;20138;-76
2021/04/03 07:15:56;;;;;;;45.80;8.15;;;;;;;;;;5132388;27;20463;-77
2021/04/03 07:18:23;;;;;;;49.45;7.80;;;;;;;;;;5132117;27;20047;-76
2021/04/03 07:20:49;;;;;;;45.85;8.43;;;;;;;;;;5133633;27;20107;-76
2021/04/03 07:23:16;;;;;;;55.47;9.23;;;;;;;;;;5131920;27;20066;-77
2021/04/03 07:25:43;;;;;;;49.00;8.02;;;;;;;;;;5132432;27;20043;-76
2021/04/03 07:28:10;;;;;;;49.72;7.75;;;;;;;;;;5132914;27;20103;-76
2021/04/03 07:30:38;;;;;;;50.88;7.45;;;;;;;;;;5131092;27;20118;-76
2021/04/03 07:33:08;;;;;;;37.55;6.60;;;;;;;;;;5129959;27;20047;-75
2021/04/03 07:35:54;;;;;;;37.92;6.38;;;;;;;;;;5110904;28;20039;-77
2021/04/03 07:38:20;;;;;;;42.78;7.78;;;;;;;;;;5124152;27;20077;-75
2021/04/03 07:40:54;;;;;;;53.00;8.23;;;;;;;;;;5127713;27;20406;-76
2021/04/03 07:43:30;;;;;;;39.40;7.70;;;;;;;;;;5129651;27;20047;-75
2021/04/03 07:45:57;;;;;;;44.55;7.63;;;;;;;;;;5115275;28;20087;-76
2021/04/03 07:48:49;;;;;;;41.03;6.75;;;;;;;;;;5129396;27;20398;-76
2021/04/03 07:51:17;;;;;;;54.58;7.68;;;;;;;;;;5130254;27;20509;-76
2021/04/03 07:53:45;;;;;;;46.47;6.97;;;;;;;;;;5130378;28;20311;-76
2021/04/03 07:56:12;;;;;;;41.72;7.40;;;;;;;;;;5132570;28;20144;-76
2021/04/03 07:58:47;;;;;;;44.58;8.25;;;;;;;;;;5120316;28;20035;-76
2021/04/03 08:01:13;;;;;;;44.38;8.02;;;;;;;;;;5116964;28;20035;-76
2021/04/03 08:03:40;;;;;;;38.92;8.45;;;;;;;;;;5145580;27;20050;-78
2021/04/03 08:06:07;;;;;;;45.95;8.00;;;;;;;;;;5113137;28;20062;-76
2021/04/03 08:08:35;;;;;;;38.03;6.45;;;;;;;;;;5131163;28;20093;-77
2021/04/03 08:11:11;;;;;;;46.83;8.10;;;;;;;;;;5131867;28;20367;-76
2021/04/03 08:13:48;;;;;;;49.72;7.40;;;;;;;;;;5162561;27;20130;-76
2021/04/03 08:16:15;;;;;;;43.25;7.25;;;;;;;;;;5126506;28;20044;-76
2021/04/03 08:18:42;;;;;;;47.35;7.75;;;;;;;;;;5153277;27;20035;-76
2021/04/03 08:21:09;;;;;;;48.78;7.75;;;;;;;;;;5112360;28;20043;-76
2021/04/03 08:23:47;;;;;;;40.33;6.75;;;;;;;;;;5092718;28;20493;-75
2021/04/03 08:26:13;;;;;;;44.28;7.63;;;;;;;;;;5129859;28;20039;-75
2021/04/03 08:28:39;;;;;;;39.60;6.85;;;;;;;;;;5130791;28;20073;-75
2021/04/03 08:31:18;;;;;;;37.50;7.03;;;;;;;;;;5131366;28;20039;-75
2021/04/03 08:33:44;;;;;;;39.13;6.32;;;;;;;;;;5123092;28;20039;-77
2021/04/03 08:36:15;;;;;;;29.67;6.10;;;;;;;;;;5132561;28;20126;-76
2021/04/03 08:38:43;;;;;;;41.72;6.03;;;;;;;;;;5130772;28;20066;-78
2021/04/03 08:41:10;;;;;;;44.85;7.00;;;;;;;;;;5131347;28;20039;-81
2021/04/03 08:43:36;;;;;;;45.35;6.15;;;;;;;;;;5130774;28;20401;-75
2021/04/03 08:46:14;;;;;;;41.53;6.50;;;;;;;;;;5113731;28;20146;-75
2021/04/03 08:48:42;;;;;;;37.65;6.63;;;;;;;;;;5116169;28;20089;-76
2021/04/03 08:51:09;;;;;;;41.25;6.65;;;;;;;;;;5132863;28;20119;-76
2021/04/03 08:53:42;;;;;;;37.20;6.05;;;;;;;;;;5113719;28;20047;-77
2021/04/03 08:56:10;;;;;;;40.38;7.32;;;;;;;;;;5131265;28;20039;-76
2021/04/03 08:58:37;;;;;;;30.63;6.80;;;;;;;;;;5131322;27;20062;-78
2021/04/03 09:01:05;;;;;;;31.50;6.38;;;;;;;;;;5116248;27;20446;-76
2021/04/03 09:03:33;;;;;;;39.65;7.32;;;;;;;;;;5128971;27;20060;-77
2021/04/03 09:06:00;;;;;;;42.72;7.05;;;;;;;;;;5130054;27;20069;-77
2021/04/03 09:08:27;;;;;;;38.58;6.57;;;;;;;;;;5117195;27;20478;-77
2021/04/03 09:10:54;;;;;;;38.78;6.28;;;;;;;;;;5133312;27;20067;-80
2021/04/03 09:13:20;;;;;;;34.85;6.07;;;;;;;;;;5134514;27;20049;-76
2021/04/03 09:15:47;;;;;;;31.38;5.43;;;;;;;;;;5115541;27;20122;-76
2021/04/03 09:18:14;;;;;;;38.45;6.18;;;;;;;;;;5131560;27;20043;-76
2021/04/03 09:20:47;;;;;;;29.92;5.25;;;;;;;;;;5129358;27;20126;-76
2021/04/03 09:23:14;;;;;;;24.27;6.07;;;;;;;;;;5116944;27;20047;-76
2021/04/03 09:25:40;;;;;;;36.55;6.50;;;;;;;;;;5130696;27;20077;-77
2021/04/03 09:28:12;;;;;;;36.45;4.90;;;;;;;;;;5099603;27;20046;-76
2021/04/03 09:30:40;;;;;;;35.28;5.43;;;;;;;;;;5108907;27;20398;-76
2021/04/03 09:33:15;;;;;;;32.85;6.60;;;;;;;;;;5105951;28;20139;-76
2021/04/03 09:35:41;;;;;;;29.65;6.05;;;;;;;;;;5128484;27;20043;-77
2021/04/03 09:38:08;;;;;;;27.38;5.20;;;;;;;;;;5099876;27;20051;-77
2021/04/03 09:40:39;;;;;;;36.90;6.50;;;;;;;;;;5116671;27;20047;-77
2021/04/03 09:43:06;;;;;;;41.50;6.32;;;;;;;;;;5115990;27;20047;-76
2021/04/03 09:45:32;;;;;;;33.65;6.10;;;;;;;;;;5133173;27;20086;-77
2021/04/03 09:47:59;;;;;;;32.22;6.30;;;;;;;;;;5114503;27;20047;-78
2021/04/03 09:50:26;;;;;;;37.90;7.32;;;;;;;;;;5123931;27;20070;-76
2021/04/03 09:52:52;;;;;;;27.30;6.75;;;;;;;;;;5128890;27;20043;-76
2021/04/03 09:55:19;;;;;;;33.10;6.10;;;;;;;;;;5099332;27;20047;-78
2021/04/03 09:57:46;;;;;;;26.63;5.50;;;;;;;;;;5132468;27;20411;-77
2021/04/03 10:00:12;;;;;;;26.05;5.35;;;;;;;;;;5115789;27;20051;-77
2021/04/03 10:02:39;;;;;;;33.42;6.03;;;;;;;;;;5097642;27;20047;-76
2021/04/03 10:05:05;;;;;;;24.17;4.28;;;;;;;;;;5129858;27;20043;-77
2021/04/03 10:07:32;;;;;;;21.15;4.85;;;;;;;;;;5114540;27;20162;-78
2021/04/03 10:09:58;;;;;;;29.92;5.05;;;;;;;;;;5112949;28;20040;-80
2021/04/03 10:12:25;;;;;;;32.83;5.40;;;;;;;;;;5115943;27;20038;-84
2021/04/03 10:14:51;;;;;;;37.30;6.15;;;;;;;;;;5133598;27;20043;-80
2021/04/03 10:17:18;;;;;;;36.30;5.82;;;;;;;;;;5131850;27;20039;-79
2021/04/03 10:19:44;;;;;;;30.75;6.00;;;;;;;;;;5131523;27;20047;-76
2021/04/03 10:22:11;;;;;;;38.13;6.40;;;;;;;;;;5141939;27;20207;-78
2021/04/03 10:24:37;;;;;;;30.58;5.70;;;;;;;;;;5138941;27;20039;-77
2021/04/03 10:27:04;;;;;;;23.88;4.43;;;;;;;;;;5126551;27;20101;-79
2021/04/03 10:29:30;;;;;;;31.33;5.75;;;;;;;;;;5129588;27;20040;-77
2021/04/03 10:31:56;;;;;;;33.30;5.90;;;;;;;;;;5094118;27;20122;-78
2021/04/03 10:34:23;;;;;;;33.05;5.75;;;;;;;;;;5130804;27;20547;-78
2021/04/03 10:36:49;;;;;;;34.78;5.20;;;;;;;;;;5150746;27;20047;-79
2021/04/03 10:39:15;;;;;;;28.05;5.55;;;;;;;;;;5136555;27;20103;-79
2021/04/03 10:41:41;;;;;;;28.02;5.15;;;;;;;;;;5134614;27;20083;-80
2021/04/03 10:44:07;;;;;;;27.08;6.20;;;;;;;;;;5127801;27;20032;-79
2021/04/03 10:46:33;;;;;;;31.02;5.80;;;;;;;;;;5108682;27;20074;-78
2021/04/03 10:49:00;;;;;;;24.85;5.95;;;;;;;;;;5118405;27;20100;-77
2021/04/03 10:51:26;;;;;;;26.65;5.20;;;;;;;;;;5134649;27;20036;-79
2021/04/03 10:53:52;;;;;;;26.77;4.95;;;;;;;;;;5122571;27;20482;-78
2021/04/03 10:56:18;;;;;;;31.15;5.13;;;;;;;;;;5146588;27;20047;-80
2021/04/03 10:58:48;;;;;;;33.03;5.95;;;;;;;;;;5098459;27;20043;-80
2021/04/03 11:01:14;;;;;;;25.95;4.93;;;;;;;;;;5129815;27;20039;-81
2021/04/03 11:03:40;;;;;;;29.58;4.63;;;;;;;;;;5119908;27;20134;-79
2021/04/03 11:06:06;;;;;;;32.50;5.57;;;;;;;;;;5136251;27;20182;-80
2021/04/03 11:08:33;;;;;;;31.30;4.55;;;;;;;;;;5126188;27;20036;-78
2021/04/03 11:10:59;;;;;;;29.70;5.40;;;;;;;;;;5134336;27;20046;-79
2021/04/03 11:13:26;;;;;;;26.40;5.35;;;;;;;;;;5148699;27;20043;-79
2021/04/03 11:15:52;;;;;;;22.92;5.10;;;;;;;;;;5145533;27;20511;-78
2021/04/03 11:18:18;;;;;;;17.73;3.88;;;;;;;;;;5093732;28;20487;-79
2021/04/03 11:20:44;;;;;;;24.92;4.10;;;;;;;;;;5122200;27;20098;-78
2021/04/03 11:23:11;;;;;;;30.50;4.72;;;;;;;;;;5115583;27;20031;-78
2021/04/03 11:25:37;;;;;;;25.92;4.78;;;;;;;;;;5134123;27;20031;-76
2021/04/03 11:28:03;;;;;;;26.63;4.40;;;;;;;;;;5131188;27;20525;-77
2021/04/03 11:30:29;;;;;;;26.23;4.30;;;;;;;;;;5134871;27;20390;-80
2021/04/03 11:32:55;;;;;;;29.75;5.05;;;;;;;;;;5130533;27;20050;-81
2021/04/03 11:35:22;;;;;;;30.10;5.95;;;;;;;;;;5126178;27;20081;-79
2021/04/03 11:37:49;;;;;;;19.95;4.43;;;;;;;;;;5115465;28;20058;-77
2021/04/03 11:40:16;;;;;;;21.38;3.95;;;;;;;;;;5128407;27;20031;-78
2021/04/03 11:42:44;;;;;;;24.85;4.85;;;;;;;;;;5115241;27;20054;-75
2021/04/03 11:45:11;;;;;;;31.42;4.90;;;;;;;;;;5127349;27;20107;-75
2021/04/03 11:47:37;;;;;;;25.02;4.00;;;;;;;;;;5147005;27;20035;-78
2021/04/03 11:50:05;;;;;;;24.35;4.75;;;;;;;;;;5132245;28;20038;-76
2021/04/03 11:52:32;;;;;;;25.20;4.68;;;;;;;;;;5134693;28;20047;-76
2021/04/03 11:54:58;;;;;;;26.77;4.75;;;;;;;;;;5130249;28;20034;-80
2021/04/03 11:57:25;;;;;;;29.65;5.72;;;;;;;;;;5153226;27;20062;-77
2021/04/03 11:59:51;;;;;;;27.30;5.28;;;;;;;;;;5117424;28;20112;-80
2021/04/03 12:02:18;;;;;;;25.10;5.60;;;;;;;;;;5095275;28;20051;-76
2021/04/03 12:04:44;;;;;;;31.05;5.40;;;;;;;;;;5094638;28;20406;-71
2021/04/03 12:07:10;;;;;;;18.52;4.32;;;;;;;;;;5094245;28;20055;-76
2021/04/03 12:09:37;;;;;;;31.67;5.50;;;;;;;;;;5114704;28;20374;-74
2021/04/03 12:12:06;;;;;;;24.90;4.70;;;;;;;;;;5120134;28;20085;-72
2021/04/03 12:14:32;;;;;;;23.60;4.40;;;;;;;;;;5129509;28;20049;-71
2021/04/03 12:16:59;;;;;;;23.60;4.05;;;;;;;;;;5130595;27;20039;-71
2021/04/03 12:19:25;;;;;;;26.60;4.60;;;;;;;;;;5130628;28;20143;-70
2021/04/03 12:21:52;;;;;;;23.15;4.60;;;;;;;;;;5129389;28;20430;-79
2021/04/03 12:24:18;;;;;;;24.17;4.93;;;;;;;;;;5153255;27;20054;-79
2021/04/03 12:26:44;;;;;;;20.92;4.18;;;;;;;;;;5129698;28;20039;-73
2021/04/03 12:29:10;;;;;;;25.30;4.85;;;;;;;;;;5128846;28;20058;-73
2021/04/03 12:31:36;;;;;;;25.05;4.20;;;;;;;;;;5128065;28;20066;-76
2021/04/03 12:34:03;;;;;;;23.02;3.78;;;;;;;;;;5130071;27;20503;-73
2021/04/03 12:36:30;;;;;;;22.48;4.35;;;;;;;;;;5126678;27;20057;-81
2021/04/03 12:38:56;;;;;;;29.10;5.00;;;;;;;;;;5138722;27;20040;-76
2021/04/03 12:41:23;;;;;;;23.60;4.47;;;;;;;;;;5131056;27;20035;-77
2021/04/03 12:43:49;;;;;;;21.20;4.15;;;;;;;;;;5151950;27;20091;-75
2021/04/03 12:46:15;;;;;;;29.55;4.38;;;;;;;;;;5130952;27;20042;-76
2021/04/03 12:48:41;;;;;;;24.90;4.35;;;;;;;;;;5118053;27;20043;-76
2021/04/03 12:51:08;;;;;;;23.65;4.00;;;;;;;;;;5115061;27;20496;-77
2021/04/03 12:53:34;;;;;;;20.10;4.38;;;;;;;;;;5134552;27;20118;-77
2021/04/03 12:56:00;;;;;;;28.45;4.93;;;;;;;;;;5115516;27;20039;-78
2021/04/03 12:58:26;;;;;;;20.75;4.18;;;;;;;;;;5120718;27;20050;-74
2021/04/03 13:00:53;;;;;;;22.73;4.40;;;;;;;;;;5125882;27;20120;-73
2021/04/03 13:03:20;;;;;;;21.65;3.85;;;;;;;;;;5115641;27;20210;-74
2021/04/03 13:05:46;;;;;;;21.20;3.90;;;;;;;;;;5142223;27;20401;-74
2021/04/03 13:08:12;;;;;;;20.30;4.47;;;;;;;;;;5130800;27;20039;-74
2021/04/03 13:10:39;;;;;;;22.42;4.22;;;;;;;;;;5137149;27;20047;-74
2021/04/03 13:13:05;;;;;;;24.48;4.57;;;;;;;;;;5129302;27;20039;-71
2021/04/03 13:15:32;;;;;;;22.83;4.25;;;;;;;;;;5143716;27;20047;-72
2021/04/03 13:17:58;;;;;;;22.33;5.18;;;;;;;;;;5133095;27;20039;-72
2021/04/03 13:20:24;;;;;;;22.48;3.63;;;;;;;;;;5111955;27;20454;-75
2021/04/03 13:22:50;;;;;;;25.13;4.38;;;;;;;;;;5111617;28;20082;-71
2021/04/03 13:25:17;;;;;;;21.05;4.00;;;;;;;;;;5111664;27;20051;-71
2021/04/03 13:27:43;;;;;;;22.10;4.53;;;;;;;;;;5124300;27;20457;-71
2021/04/03 13:30:10;;;;;;;20.27;3.83;;;;;;;;;;5127864;27;20046;-75
2021/04/03 13:32:36;;;;;;;25.65;4.57;;;;;;;;;;5134342;27;20043;-75
2021/04/03 13:35:05;;;;;;;24.83;4.13;;;;;;;;;;5133412;27;20050;-76
2021/04/03 13:37:32;;;;;;;28.17;4.32;;;;;;;;;;5113864;27;20039;-80
2021/04/03 13:39:58;;;;;;;25.33;4.10;;;;;;;;;;5118475;27;20039;-75
2021/04/03 13:42:24;;;;;;;17.55;4.15;;;;;;;;;;5116864;27;20129;-76
2021/04/03 13:44:51;;;;;;;20.23;4.10;;;;;;;;;;5128990;27;20072;-78
2021/04/03 13:47:17;;;;;;;18.20;4.03;;;;;;;;;;5132312;27;20055;-76
2021/04/03 13:49:43;;;;;;;20.80;4.25;;;;;;;;;;5131576;27;20051;-76
2021/04/03 13:52:10;;;;;;;27.27;4.70;;;;;;;;;;5132337;27;20043;-77
2021/04/03 13:54:37;;;;;;;22.00;4.20;;;;;;;;;;5116464;27;20050;-76
2021/04/03 13:57:03;;;;;;;21.30;4.10;;;;;;;;;;5115665;27;20043;-77
2021/04/03 13:59:29;;;;;;;23.33;4.10;;;;;;;;;;5094993;27;20100;-77
2021/04/03 14:01:55;;;;;;;25.33;4.32;;;;;;;;;;5131920;27;20035;-76
2021/04/03 14:04:22;;;;;;;22.33;5.75;;;;;;;;;;5116083;27;20434;-77
2021/04/03 14:06:48;;;;;;;25.17;4.60;;;;;;;;;;5118222;27;20066;-77
2021/04/03 14:09:14;;;;;;;23.85;4.45;;;;;;;;;;5115749;27;20557;-76
2021/04/03 14:11:41;;;;;;;31.05;5.82;;;;;;;;;;5112407;27;20067;-76
2021/04/03 14:14:07;;;;;;;22.85;4.70;;;;;;;;;;5132152;27;20092;-77
2021/04/03 14:16:34;;;;;;;28.45;4.85;;;;;;;;;;5093083;28;20438;-76
2021/04/03 14:19:00;;;;;;;29.08;5.18;;;;;;;;;;5119470;27;20044;-76
2021/04/03 14:21:26;;;;;;;29.23;5.20;;;;;;;;;;5111832;28;20092;-76
2021/04/03 14:23:53;;;;;;;22.33;4.97;;;;;;;;;;5121830;27;20054;-76
2021/04/03 14:26:19;;;;;;;29.20;4.25;;;;;;;;;;5105439;27;20367;-77
2021/04/03 14:28:45;;;;;;;26.02;4.07;;;;;;;;;;5132878;27;20046;-76
2021/04/03 14:31:11;;;;;;;19.90;3.80;;;;;;;;;;5096125;27;20394;-77